Time,TemperatureF,DewpointF,PressureIn,WindDirection,WindDirectionDegrees,WindSpeedMPH,WindSpeedGustMPH,Humidity,HourlyPrecipIn,Conditions,Clouds,dailyrainin,SoftwareType,DateUTC
2013-05-03 00:00:00,53.9,53.9,30.12,SE,124,0.0,0.0,100,0.00,,---,0.00,VWS V14.01,2013-05-03 04:00:00,
2013-05-03 00:10:00,53.6,53.6,30.12,SE,124,0.0,0.0,100,0.00,,---,0.00,VWS V14.01,2013-05-03 04:10:00,
2013-05-03 00:20:00,53.3,53.3,30.12,SE,124,0.0,0.0,100,0.00,,---,0.00,VWS V14.01,2013-05-03 04:20:00,
2013-05-03 00:30:00,53.1,53.1,30.11,SE,124,0.0,0.0,100,0.00,,---,0.00,VWS V14.01,2013-05-03 04:30:00,
2013-05-03 00:40:00,52.6,52.6,30.11,SE,124,0.0,0.0,100,0.00,,---,0.00,VWS V14.01,2013-05-03 04:40:00,
2013-05-03 00:50:00,52.3,52.3,30.10,SE,124,0.0,0.0,100,0.00,,---,0.00,VWS V14.01,2013-05-03 04:50:00,
2013-05-03 01:00:00,52.2,52.2,30.10,SE,124,0.0,0.0,100,0.00,,---,0.00,VWS V14.01,2013-05-03 05:00:00,
2013-05-03 01:10:00,51.9,51.9,30.10,SE,124,0.0,0.0,100,0.00,,---,0.00,VWS V14.01,2013-05-03 05:10:00,
2013-05-03 01:20:00,51.6,51.6,30.10,SE,124,0.0,0.0,100,0.00,,---,0.00,VWS V14.01,2013-05-03 05:20:00,
2013-05-03 01:30:00,51.3,51.3,30.10,SE,124,0.0,0.0,100,0.00,,---,0.00,VWS V14.01,2013-05-03 05:30:00,
2013-05-03 01:40:00,51.3,51.3,30.10,SE,124,0.0,0.0,100,0.00,,---,0.00,VWS V14.01,2013-05-03 05:40:00,
2013-05-03 01:50:00,51.0,51.0,30.09,SE,124,0.0,0.0,100,0.00,,---,0.00,VWS V14.01,2013-05-03 05:50:00,
2013-05-03 02:00:00,50.8,50.8,30.09,SE,124,0.0,0.0,100,0.00,,---,0.00,VWS V14.01,2013-05-03 06:00:00,
2013-05-03 02:10:00,50.5,50.5,30.09,SE,124,0.0,0.0,100,0.00,,---,0.00,VWS V14.01,2013-05-03 06:10:00,
2013-05-03 02:20:00,50.4,50.4,30.09,SE,124,0.0,0.0,100,0.00,,---,0.00,VWS V14.01,2013-05-03 06:20:00,
2013-05-03 02:30:00,50.1,50.1,30.09,SE,124,0.0,0.0,100,0.00,,---,0.00,VWS V14.01,2013-05-03 06:30:00,
2013-05-03 02:40:00,49.9,49.9,30.09,SE,124,0.0,0.0,100,0.00,,---,0.00,VWS V14.01,2013-05-03 06:40:00,
2013-05-03 02:50:00,49.9,49.9,30.08,SE,124,0.0,0.0,100,0.00,,---,0.00,VWS V14.01,2013-05-03 06:50:00,
2013-05-03 03:00:00,49.8,49.8,30.08,SE,124,0.0,0.0,100,0.00,,---,0.00,VWS V14.01,2013-05-03 07:00:00,
2013-05-03 03:10:00,49.6,49.6,30.08,SE,124,0.0,0.0,100,0.00,,---,0.00,VWS V14.01,2013-05-03 07:10:00,
2013-05-03 03:20:00,49.6,49.6,30.08,SE,124,0.0,0.0,100,0.00,,---,0.00,VWS V14.01,2013-05-03 07:20:00,
2013-05-03 03:30:00,49.5,49.5,30.07,SE,124,0.0,0.0,100,0.00,,---,0.00,VWS V14.01,2013-05-03 07:30:00,
2013-05-03 03:40:00,49.4,49.4,30.07,SE,124,0.0,0.0,100,0.00,,---,0.00,VWS V14.01,2013-05-03 07:40:00,
2013-05-03 03:50:00,49.2,49.2,30.07,SE,124,0.0,0.0,100,0.00,,---,0.00,VWS V14.01,2013-05-03 07:50:00,
2013-05-03 04:00:00,49.1,49.1,30.07,SE,124,0.0,0.0,100,0.00,,---,0.00,VWS V14.01,2013-05-03 08:00:00,
2013-05-03 04:10:00,48.9,48.9,30.07,SE,124,0.0,0.0,100,0.00,,---,0.00,VWS V14.01,2013-05-03 08:10:00,
2013-05-03 04:20:00,48.9,48.9,30.07,SE,124,0.0,0.0,100,0.00,,---,0.00,VWS V14.01,2013-05-03 08:20:00,
2013-05-03 04:30:00,48.8,48.8,30.07,SE,124,0.0,0.0,100,0.00,,---,0.00,VWS V14.01,2013-05-03 08:30:00,
2013-05-03 04:40:00,48.6,48.6,30.07,SE,124,0.0,0.0,100,0.00,,---,0.00,VWS V14.01,2013-05-03 08:40:00,
2013-05-03 04:50:00,48.6,48.6,30.07,SE,124,0.0,0.0,100,0.00,,---,0.00,VWS V14.01,2013-05-03 08:50:00,
2013-05-03 05:00:00,48.8,48.8,30.07,SE,124,0.0,0.0,100,0.00,,---,0.00,VWS V14.01,2013-05-03 09:00:00,
2013-05-03 05:10:00,48.8,48.8,30.07,SE,124,0.0,0.0,100,0.00,,---,0.00,VWS V14.01,2013-05-03 09:10:00,
2013-05-03 05:20:00,48.8,48.8,30.07,SSW,202,0.0,0.0,100,0.00,,---,0.00,VWS V14.01,2013-05-03 09:20:00,
2013-05-03 05:30:00,48.8,48.8,30.07,SSW,202,0.0,0.0,100,0.00,,---,0.00,VWS V14.01,2013-05-03 09:30:00,
2013-05-03 05:40:00,48.6,48.6,30.07,SSW,202,0.0,0.0,100,0.00,,---,0.00,VWS V14.01,2013-05-03 09:40:00,
2013-05-03 05:50:00,48.5,48.5,30.07,SSW,202,0.0,0.0,100,0.00,,---,0.00,VWS V14.01,2013-05-03 09:50:00,
2013-05-03 06:00:00,48.6,48.6,30.08,SSW,202,0.0,0.0,100,0.00,,---,0.00,VWS V14.01,2013-05-03 10:00:00,
2013-05-03 06:10:00,48.5,48.5,30.08,SSW,202,0.0,0.0,100,0.00,,---,0.00,VWS V14.01,2013-05-03 10:10:00,
2013-05-03 06:20:00,48.3,48.3,30.08,SSW,202,0.0,0.0,100,0.00,,---,0.00,VWS V14.01,2013-05-03 10:20:00,
2013-05-03 06:30:00,48.3,48.3,30.08,SSW,202,0.0,0.0,100,0.00,,---,0.00,VWS V14.01,2013-05-03 10:30:00,
2013-05-03 06:40:00,48.3,48.3,30.08,SSW,202,0.0,0.0,100,0.00,,---,0.00,VWS V14.01,2013-05-03 10:40:00,
2013-05-03 06:50:00,48.3,48.3,30.09,SSW,202,0.0,0.0,100,0.00,,---,0.00,VWS V14.01,2013-05-03 10:50:00,
2013-05-03 07:00:00,48.5,48.5,30.09,SSW,202,0.0,0.0,100,0.00,,---,0.00,VWS V14.01,2013-05-03 11:00:00,
2013-05-03 07:10:00,48.8,48.8,30.09,SSW,202,0.0,0.0,100,0.00,,---,0.00,VWS V14.01,2013-05-03 11:10:00,
2013-05-03 07:20:00,48.8,48.8,30.10,WNW,298,0.0,0.0,100,0.00,,---,0.00,VWS V14.01,2013-05-03 11:20:00,
2013-05-03 07:30:00,48.9,48.9,30.10,WNW,298,0.0,0.0,100,0.00,,---,0.00,VWS V14.01,2013-05-03 11:30:00,
2013-05-03 07:40:00,49.1,49.1,30.10,WNW,298,0.0,0.0,100,0.00,,---,0.00,VWS V14.01,2013-05-03 11:40:00,
2013-05-03 07:50:00,49.4,49.4,30.10,West,280,0.0,0.0,100,0.00,,---,0.00,VWS V14.01,2013-05-03 11:50:00,
2013-05-03 08:00:00,49.8,49.8,30.10,West,280,0.0,0.0,100,0.00,,---,0.00,VWS V14.01,2013-05-03 12:00:00,
2013-05-03 08:10:00,50.1,50.1,30.10,West,280,0.0,0.0,100,0.00,,---,0.00,VWS V14.01,2013-05-03 12:10:00,
2013-05-03 08:20:00,50.4,50.4,30.10,WSW,247,0.0,0.0,100,0.00,,---,0.00,VWS V14.01,2013-05-03 12:20:00,
2013-05-03 08:30:00,50.8,50.8,30.10,WSW,246,0.0,0.0,100,0.00,,---,0.00,VWS V14.01,2013-05-03 12:30:00,
2013-05-03 08:40:00,51.4,51.4,30.10,WSW,241,0.0,0.0,100,0.00,,---,0.00,VWS V14.01,2013-05-03 12:40:00,
2013-05-03 08:50:00,52.2,52.2,30.10,SSE,154,0.0,2.0,100,0.00,,---,0.00,VWS V14.01,2013-05-03 12:50:00,
2013-05-03 09:00:00,53.1,53.1,30.11,SSW,196,0.0,2.0,100,0.00,,---,0.00,VWS V14.01,2013-05-03 13:00:00,
2013-05-03 09:10:00,53.9,53.9,30.11,NNE,16,0.0,5.0,100,0.00,,---,0.00,VWS V14.01,2013-05-03 13:10:00,
2013-05-03 09:20:00,54.5,54.5,30.10,ESE,113,0.0,5.0,100,0.00,,---,0.00,VWS V14.01,2013-05-03 13:20:00,
2013-05-03 09:30:00,55.3,55.3,30.10,South,184,0.0,4.0,100,0.00,,---,0.00,VWS V14.01,2013-05-03 13:30:00,
2013-05-03 09:40:00,55.9,55.9,30.10,NNE,31,0.0,0.0,100,0.00,,---,0.00,VWS V14.01,2013-05-03 13:40:00,
2013-05-03 09:50:00,56.9,56.9,30.11,West,278,0.0,0.0,100,0.00,,---,0.00,VWS V14.01,2013-05-03 13:50:00,
2013-05-03 10:00:00,57.2,56.9,30.11,ESE,107,0.0,7.0,99,0.00,,---,0.00,VWS V14.01,2013-05-03 14:00:00,
2013-05-03 10:10:00,57.5,57.2,30.11,NE,55,0.0,3.0,99,0.00,,---,0.00,VWS V14.01,2013-05-03 14:10:00,
2013-05-03 10:20:00,58.0,57.7,30.11,SSW,206,0.0,3.0,99,0.00,,---,0.00,VWS V14.01,2013-05-03 14:20:00,
2013-05-03 10:30:00,58.3,57.7,30.12,West,268,0.0,5.0,98,0.00,,---,0.00,VWS V14.01,2013-05-03 14:30:00,
2013-05-03 10:40:00,58.7,57.8,30.12,East,82,0.0,4.0,97,0.00,,---,0.00,VWS V14.01,2013-05-03 14:40:00,
2013-05-03 10:50:00,59.3,57.9,30.12,WSW,253,5.0,6.0,95,0.00,,---,0.00,VWS V14.01,2013-05-03 14:50:00,
2013-05-03 11:00:00,60.7,59.0,30.11,SE,140,0.0,5.0,94,0.00,,---,0.00,VWS V14.01,2013-05-03 15:00:00,
2013-05-03 11:10:00,62.4,58.5,30.11,NE,44,0.0,5.0,87,0.00,,---,0.00,VWS V14.01,2013-05-03 15:10:00,
2013-05-03 11:20:00,63.9,59.6,30.11,SW,217,0.0,2.0,86,0.00,,---,0.00,VWS V14.01,2013-05-03 15:20:00,
2013-05-03 11:30:00,64.8,59.2,30.11,West,260,0.0,5.0,82,0.00,,---,0.00,VWS V14.01,2013-05-03 15:30:00,
2013-05-03 11:40:00,65.6,60.0,30.11,West,274,0.0,3.0,82,0.00,,---,0.00,VWS V14.01,2013-05-03 15:40:00,
2013-05-03 11:50:00,66.4,60.0,30.10,NE,34,0.0,3.0,80,0.00,,---,0.00,VWS V14.01,2013-05-03 15:50:00,
2013-05-03 12:00:00,66.8,60.8,30.10,NNE,31,0.0,0.0,81,0.00,,---,0.00,VWS V14.01,2013-05-03 16:00:00,
2013-05-03 12:10:00,66.4,59.7,30.10,NW,312,0.0,1.0,79,0.00,,---,0.00,VWS V14.01,2013-05-03 16:10:00,
2013-05-03 12:20:00,67.3,60.2,30.10,SSE,151,0.0,0.0,78,0.00,,---,0.00,VWS V14.01,2013-05-03 16:20:00,
2013-05-03 12:30:00,67.8,60.0,30.10,SE,127,0.0,5.0,76,0.00,,---,0.00,VWS V14.01,2013-05-03 16:30:00,
2013-05-03 12:40:00,68.1,60.6,30.10,East,99,0.0,0.0,77,0.00,,---,0.00,VWS V14.01,2013-05-03 16:40:00,
2013-05-03 12:50:00,68.3,60.1,30.09,ESE,104,0.0,3.0,75,0.00,,---,0.00,VWS V14.01,2013-05-03 16:50:00,
2013-05-03 13:00:00,68.1,61.0,30.08,West,264,0.0,5.0,78,0.00,,---,0.00,VWS V14.01,2013-05-03 17:00:00,
2013-05-03 13:10:00,68.1,61.0,30.08,ENE,71,0.0,3.0,78,0.00,,---,0.00,VWS V14.01,2013-05-03 17:10:00,
2013-05-03 13:20:00,68.3,60.1,30.08,NNW,333,0.0,2.0,75,0.00,,---,0.00,VWS V14.01,2013-05-03 17:20:00,
2013-05-03 13:30:00,68.3,60.1,30.08,SW,229,0.0,6.0,75,0.00,,---,0.00,VWS V14.01,2013-05-03 17:30:00,
2013-05-03 13:40:00,67.9,61.2,30.08,SSE,168,0.0,2.0,79,0.00,,---,0.00,VWS V14.01,2013-05-03 17:40:00,
2013-05-03 13:50:00,68.8,60.9,30.07,SW,215,0.0,7.0,76,0.00,,---,0.00,VWS V14.01,2013-05-03 17:50:00,
2013-05-03 14:00:00,69.8,61.2,30.07,East,86,0.0,5.0,74,0.00,,---,0.00,VWS V14.01,2013-05-03 18:00:00,
2013-05-03 14:10:00,69.3,60.3,30.07,East,96,0.0,6.0,73,0.00,,---,0.00,VWS V14.01,2013-05-03 18:10:00,
2013-05-03 14:20:00,69.4,61.1,30.06,ENE,58,0.0,1.0,75,0.00,,---,0.00,VWS V14.01,2013-05-03 18:20:00,
2013-05-03 14:30:00,69.6,61.0,30.05,WSW,240,0.0,3.0,74,0.00,,---,0.00,VWS V14.01,2013-05-03 18:30:00,
2013-05-03 14:40:00,69.1,60.8,30.05,NNW,342,0.0,5.0,75,0.00,,---,0.00,VWS V14.01,2013-05-03 18:40:00,
2013-05-03 14:50:00,69.3,59.1,30.05,SSE,151,0.0,5.0,70,0.00,,---,0.00,VWS V14.01,2013-05-03 18:50:00,
2013-05-03 15:00:00,69.1,60.5,30.05,SE,136,0.0,10.0,74,0.00,,---,0.00,VWS V14.01,2013-05-03 19:00:00,
2013-05-03 15:10:00,69.6,60.2,30.05,South,169,6.0,6.0,72,0.00,,---,0.00,VWS V14.01,2013-05-03 19:10:00,
2013-05-03 15:20:00,69.6,60.6,30.04,East,82,0.0,6.0,73,0.00,,---,0.00,VWS V14.01,2013-05-03 19:20:00,
2013-05-03 15:30:00,69.4,59.2,30.03,NE,55,0.0,6.0,70,0.00,,---,0.00,VWS V14.01,2013-05-03 19:30:00,
2013-05-03 15:40:00,70.3,60.1,30.03,ESE,106,0.0,3.0,70,0.00,,---,0.00,VWS V14.01,2013-05-03 19:40:00,
2013-05-03 15:50:00,69.6,59.4,30.03,SSE,151,0.0,3.0,70,0.00,,---,0.00,VWS V14.01,2013-05-03 19:50:00,
2013-05-03 16:00:00,70.4,59.3,30.02,NE,55,0.0,3.0,68,0.00,,---,0.00,VWS V14.01,2013-05-03 20:00:00,
2013-05-03 16:10:00,70.3,59.7,30.02,ESE,104,0.0,7.0,69,0.00,,---,0.00,VWS V14.01,2013-05-03 20:10:00,
2013-05-03 16:20:00,70.4,60.6,30.02,WSW,244,0.0,5.0,71,0.00,,---,0.00,VWS V14.01,2013-05-03 20:20:00,
2013-05-03 16:30:00,70.8,59.3,30.02,NE,44,0.0,7.0,67,0.00,,---,0.00,VWS V14.01,2013-05-03 20:30:00,
2013-05-03 16:40:00,70.1,59.1,30.02,ESE,110,6.0,6.0,68,0.00,,---,0.00,VWS V14.01,2013-05-03 20:40:00,
2013-05-03 16:50:00,68.9,55.8,30.02,North,0,0.0,8.0,63,0.00,,---,0.00,VWS V14.01,2013-05-03 20:50:00,
2013-05-03 17:00:00,68.8,55.7,30.02,NNE,18,0.0,6.0,63,0.00,,---,0.00,VWS V14.01,2013-05-03 21:00:00,
2013-05-03 17:10:00,68.8,56.1,30.02,NE,48,0.0,2.0,64,0.00,,---,0.00,VWS V14.01,2013-05-03 21:10:00,
2013-05-03 17:20:00,68.4,55.3,30.02,SE,130,0.0,2.0,63,0.00,,---,0.00,VWS V14.01,2013-05-03 21:20:00,
2013-05-03 17:30:00,68.3,56.1,30.02,SSE,164,0.0,1.0,65,0.00,,---,0.00,VWS V14.01,2013-05-03 21:30:00,
2013-05-03 17:40:00,67.9,56.1,30.02,SE,133,0.0,0.0,66,0.00,,---,0.00,VWS V14.01,2013-05-03 21:40:00,
2013-05-03 17:50:00,67.4,54.8,30.02,WNW,302,0.0,2.0,64,0.00,,---,0.00,VWS V14.01,2013-05-03 21:50:00,
2013-05-03 18:00:00,66.9,55.6,30.02,South,181,0.0,3.0,67,0.00,,---,0.00,VWS V14.01,2013-05-03 22:00:00,
2013-05-03 18:10:00,66.6,54.5,30.02,SE,133,0.0,1.0,65,0.00,,---,0.00,VWS V14.01,2013-05-03 22:10:00,
2013-05-03 18:20:00,66.4,55.5,30.02,NE,52,0.0,3.0,68,0.00,,---,0.00,VWS V14.01,2013-05-03 22:20:00,
2013-05-03 18:30:00,65.8,54.5,30.03,ENE,62,0.0,3.0,67,0.00,,---,0.00,VWS V14.01,2013-05-03 22:30:00,
2013-05-03 18:40:00,65.2,53.6,30.03,East,80,0.0,1.0,66,0.00,,---,0.00,VWS V14.01,2013-05-03 22:40:00,
2013-05-03 18:50:00,64.5,52.9,30.03,ESE,117,0.0,3.0,66,0.00,,---,0.00,VWS V14.01,2013-05-03 22:50:00,
2013-05-03 19:00:00,63.9,51.9,30.03,ENE,72,0.0,6.0,65,0.00,,---,0.00,VWS V14.01,2013-05-03 23:00:00,
2013-05-03 19:10:00,63.2,51.2,30.03,East,86,0.0,4.0,65,0.00,,---,0.00,VWS V14.01,2013-05-03 23:10:00,
2013-05-03 19:20:00,62.6,51.9,30.04,SE,140,0.0,3.0,68,0.00,,---,0.00,VWS V14.01,2013-05-03 23:20:00,
2013-05-03 19:30:00,62.0,51.3,30.05,NE,42,0.0,4.0,68,0.00,,---,0.00,VWS V14.01,2013-05-03 23:30:00,
2013-05-03 19:40:00,61.5,52.0,30.05,SE,141,0.0,3.0,71,0.00,,---,0.00,VWS V14.01,2013-05-03 23:40:00,
2013-05-03 19:50:00,60.9,51.8,30.06,East,96,0.0,5.0,72,0.00,,---,0.00,VWS V14.01,2013-05-03 23:50:00,
2013-05-03 20:00:00,60.2,52.3,30.06,NE,35,0.0,8.0,75,0.00,,---,0.00,VWS V14.01,2013-05-04 00:00:00,
2013-05-03 20:10:00,59.6,52.0,30.06,NE,40,0.0,5.0,76,0.00,,---,0.00,VWS V14.01,2013-05-04 00:10:00,
2013-05-03 20:20:00,59.0,51.8,30.06,East,82,0.0,7.0,77,0.00,,---,0.00,VWS V14.01,2013-05-04 00:20:00,
2013-05-03 20:30:00,58.4,51.6,30.07,NE,41,0.0,0.0,78,0.00,,---,0.00,VWS V14.01,2013-05-04 00:30:00,
2013-05-03 20:40:00,58.0,51.9,30.07,East,92,0.0,3.0,80,0.00,,---,0.00,VWS V14.01,2013-05-04 00:40:00,
2013-05-03 20:50:00,57.3,51.2,30.08,ESE,117,0.0,3.0,80,0.00,,---,0.00,VWS V14.01,2013-05-04 00:50:00,
2013-05-03 21:00:00,56.9,50.5,30.08,NE,42,0.0,6.0,79,0.00,,---,0.00,VWS V14.01,2013-05-04 01:00:00,
2013-05-03 21:10:00,56.5,49.4,30.08,SE,138,1.0,5.0,77,0.00,,---,0.00,VWS V14.01,2013-05-04 01:10:00,
2013-05-03 21:20:00,56.0,49.6,30.08,ENE,68,0.0,3.0,79,0.00,,---,0.00,VWS V14.01,2013-05-04 01:20:00,
2013-05-03 21:30:00,55.7,49.6,30.09,East,96,0.0,3.0,80,0.00,,---,0.00,VWS V14.01,2013-05-04 01:30:00,
2013-05-03 21:40:00,55.4,49.3,30.09,SSE,165,0.0,0.0,80,0.00,,---,0.00,VWS V14.01,2013-05-04 01:40:00,
2013-05-03 21:50:00,55.1,49.4,30.09,ESE,120,0.0,2.0,81,0.00,,---,0.00,VWS V14.01,2013-05-04 01:50:00,
2013-05-03 22:00:00,54.8,49.4,30.09,ESE,116,0.0,0.0,82,0.00,,---,0.00,VWS V14.01,2013-05-04 02:00:00,
2013-05-03 22:10:00,54.4,49.0,30.09,ENE,68,0.0,0.0,82,0.00,,---,0.00,VWS V14.01,2013-05-04 02:10:00,
2013-05-03 22:20:00,54.2,49.2,30.09,ENE,62,0.0,5.0,83,0.00,,---,0.00,VWS V14.01,2013-05-04 02:20:00,
2013-05-03 22:30:00,53.9,49.5,30.09,ESE,116,0.0,0.0,85,0.00,,---,0.00,VWS V14.01,2013-05-04 02:30:00,
2013-05-03 22:40:00,53.8,49.4,30.09,SE,128,0.0,3.0,85,0.00,,---,0.00,VWS V14.01,2013-05-04 02:40:00,
2013-05-03 22:50:00,53.5,49.4,30.08,SE,133,0.0,6.0,86,0.00,,---,0.00,VWS V14.01,2013-05-04 02:50:00,
2013-05-03 23:00:00,53.2,49.1,30.08,SSE,162,0.0,1.0,86,0.00,,---,0.00,VWS V14.01,2013-05-04 03:00:00,
2013-05-03 23:10:00,53.1,49.3,30.08,ENE,73,0.0,3.0,87,0.00,,---,0.00,VWS V14.01,2013-05-04 03:10:00,
2013-05-03 23:20:00,52.9,49.5,30.07,WSW,237,0.0,0.0,88,0.00,,---,0.00,VWS V14.01,2013-05-04 03:20:00,
2013-05-03 23:30:00,52.6,49.2,30.07,SW,236,0.0,0.0,88,0.00,,---,0.00,VWS V14.01,2013-05-04 03:30:00,
2013-05-03 23:40:00,52.3,49.2,30.07,West,274,0.0,6.0,89,0.00,,---,0.00,VWS V14.01,2013-05-04 03:40:00,
2013-05-03 23:50:00,52.2,49.7,30.07,WNW,288,0.0,2.0,91,0.00,,---,0.00,VWS V14.01,2013-05-04 03:50:00,